createdAt,value
2023-02-09T00:01:30.941Z,17.03
2023-02-09T00:04:00.218Z,19.23
2023-02-09T00:06:29.964Z,17.40
2023-02-09T00:09:00.090Z,16.43
2023-02-09T00:11:50.344Z,15.30
2023-02-09T00:14:25.166Z,15.10
2023-02-09T00:16:53.284Z,14.97
2023-02-09T00:19:22.021Z,15.40
2023-02-09T00:21:49.469Z,14.13
2023-02-09T00:24:16.757Z,16.37
2023-02-09T00:26:45.128Z,13.73
2023-02-09T00:29:12.884Z,13.43
2023-02-09T00:31:40.152Z,13.17
2023-02-09T00:34:07.775Z,13.83
2023-02-09T00:36:35.474Z,16.13
2023-02-09T00:39:02.837Z,14.20
2023-02-09T00:41:49.148Z,15.70
2023-02-09T00:44:16.236Z,13.20
2023-02-09T00:46:43.401Z,17.00
2023-02-09T00:49:10.570Z,13.63
2023-02-09T00:51:37.904Z,14.40
2023-02-09T00:54:06.728Z,14.17
2023-02-09T00:56:33.819Z,14.63
2023-02-09T00:59:01.289Z,14.80
2023-02-09T01:01:28.699Z,15.27
2023-02-09T01:03:56.415Z,13.57
2023-02-09T01:06:25.042Z,14.03
2023-02-09T01:08:52.589Z,13.53
2023-02-09T01:11:23.101Z,13.23
2023-02-09T01:13:50.256Z,15.83
2023-02-09T01:16:18.891Z,12.90
2023-02-09T01:18:48.874Z,12.73
2023-02-09T01:21:20.363Z,16.73
2023-02-09T01:23:48.687Z,13.87
2023-02-09T01:26:17.612Z,14.87
2023-02-09T01:28:48.305Z,14.67
2023-02-09T01:31:27.055Z,14.77
2023-02-09T01:33:57.094Z,15.23
2023-02-09T01:36:24.359Z,14.27
2023-02-09T01:38:54.890Z,14.77
2023-02-09T01:41:23.226Z,15.33
2023-02-09T01:44:17.934Z,14.67
2023-02-09T01:46:45.119Z,15.73
2023-02-09T01:49:28.776Z,15.27
2023-02-09T01:52:19.315Z,13.10
2023-02-09T01:54:57.390Z,16.47
2023-02-09T01:57:40.288Z,15.07
2023-02-09T02:00:20.731Z,14.70
2023-02-09T02:03:06.034Z,13.47
2023-02-09T02:05:39.193Z,14.77
2023-02-09T02:08:17.269Z,15.47
2023-02-09T02:10:44.719Z,13.33
2023-02-09T02:13:12.133Z,12.13
2023-02-09T02:16:05.381Z,13.40
2023-02-09T02:19:09.393Z,11.67
2023-02-09T02:22:02.962Z,14.00
2023-02-09T02:24:56.170Z,12.20
2023-02-09T02:27:49.030Z,12.57
2023-02-09T02:30:39.199Z,14.37
2023-02-09T02:33:58.733Z,10.93
2023-02-09T02:36:37.433Z,13.70
2023-02-09T02:39:30.209Z,13.30
2023-02-09T02:42:49.154Z,12.50
2023-02-09T02:45:47.644Z,12.07
2023-02-09T02:48:48.388Z,9.73
2023-02-09T02:51:42.029Z,10.40
2023-02-09T02:54:19.639Z,9.97
2023-02-09T02:56:55.587Z,11.73
2023-02-09T02:59:30.580Z,11.57
2023-02-09T03:02:16.885Z,10.87
2023-02-09T03:04:47.012Z,8.50
2023-02-09T03:07:17.111Z,10.93
2023-02-09T03:09:54.031Z,10.37
2023-02-09T03:12:23.905Z,10.10
2023-02-09T03:15:35.767Z,10.00
2023-02-09T03:18:11.548Z,13.40
2023-02-09T03:20:56.334Z,12.03
2023-02-09T03:23:49.808Z,9.50
2023-02-09T03:26:29.338Z,10.10
2023-02-09T03:28:59.187Z,9.97
2023-02-09T03:31:28.877Z,8.60
2023-02-09T03:33:58.477Z,10.60
2023-02-09T03:36:31.451Z,10.60
2023-02-09T03:38:59.635Z,8.53
2023-02-09T03:41:27.100Z,9.73
2023-02-09T03:44:13.064Z,10.20
2023-02-09T03:46:40.455Z,11.30
2023-02-09T03:49:07.590Z,10.57
2023-02-09T03:51:34.864Z,11.17
2023-02-09T03:54:02.006Z,11.60
2023-02-09T03:56:29.188Z,11.27
2023-02-09T03:58:56.363Z,10.03
2023-02-09T04:01:23.973Z,8.93
2023-02-09T04:03:51.307Z,11.10
2023-02-09T04:06:19.164Z,11.43
2023-02-09T04:08:47.247Z,9.30
2023-02-09T04:11:14.451Z,11.77
2023-02-09T04:13:41.586Z,10.80
2023-02-09T04:16:09.103Z,10.10
2023-02-09T04:18:36.462Z,9.80
2023-02-09T04:21:04.007Z,11.57
2023-02-09T04:23:32.901Z,10.27
2023-02-09T04:26:00.042Z,9.90
2023-02-09T04:28:27.179Z,12.33
2023-02-09T04:30:55.967Z,13.17
2023-02-09T04:33:25.429Z,11.83
2023-02-09T04:35:53.337Z,12.07
2023-02-09T04:38:22.393Z,10.93
2023-02-09T04:40:53.514Z,10.73
2023-02-09T04:43:20.961Z,9.97
2023-02-09T04:45:48.640Z,11.73
2023-02-09T04:48:19.374Z,11.37
2023-02-09T04:50:47.542Z,10.67
2023-02-09T04:53:15.677Z,10.13
2023-02-09T04:55:45.594Z,10.37
2023-02-09T04:58:35.189Z,11.93
2023-02-09T05:01:04.457Z,10.83
2023-02-09T05:03:31.818Z,10.27
2023-02-09T05:06:03.371Z,13.77
2023-02-09T05:08:31.668Z,13.37
2023-02-09T05:10:59.060Z,11.23
2023-02-09T05:13:27.284Z,10.33
2023-02-09T05:15:55.500Z,11.17
2023-02-09T05:18:23.691Z,8.80
2023-02-09T05:20:51.728Z,10.90
2023-02-09T05:23:18.987Z,11.50
2023-02-09T05:25:47.431Z,10.83
2023-02-09T05:28:15.456Z,11.13
2023-02-09T05:30:42.836Z,11.40
2023-02-09T05:33:10.092Z,11.70
2023-02-09T05:35:37.463Z,13.73
2023-02-09T05:38:05.017Z,11.37
2023-02-09T05:40:32.453Z,12.93
2023-02-09T05:43:00.060Z,11.40
2023-02-09T05:45:27.311Z,11.57
2023-02-09T05:47:54.711Z,11.70
2023-02-09T05:50:21.910Z,11.00
2023-02-09T05:52:49.281Z,14.90
2023-02-09T05:55:16.504Z,12.10
2023-02-09T05:57:43.699Z,12.87
2023-02-09T06:00:11.706Z,12.70
2023-02-09T06:02:39.050Z,11.70
2023-02-09T06:05:07.088Z,11.67
2023-02-09T06:07:35.468Z,11.87
2023-02-09T06:10:02.792Z,9.80
2023-02-09T06:12:29.874Z,11.10
2023-02-09T06:14:57.080Z,10.47
2023-02-09T06:17:24.610Z,13.07
2023-02-09T06:19:51.760Z,10.70
2023-02-09T06:22:19.003Z,12.37
2023-02-09T06:24:46.411Z,12.87
2023-02-09T06:27:13.844Z,14.87
2023-02-09T06:29:41.100Z,12.70
2023-02-09T06:32:08.250Z,12.87
2023-02-09T06:34:35.573Z,12.97
2023-02-09T06:37:02.777Z,13.10
2023-02-09T06:39:30.407Z,12.20
2023-02-09T06:41:57.619Z,13.17
2023-02-09T06:44:24.769Z,14.13
2023-02-09T06:46:51.875Z,12.80
2023-02-09T06:49:21.880Z,14.17
2023-02-09T06:51:49.730Z,14.07
2023-02-09T06:54:17.371Z,14.30
2023-02-09T06:56:44.506Z,14.00
2023-02-09T06:59:11.650Z,14.20
2023-02-09T07:01:39.047Z,14.73
2023-02-09T07:04:06.341Z,14.77
2023-02-09T07:06:33.528Z,14.93
2023-02-09T07:09:00.732Z,14.93
2023-02-09T07:11:28.127Z,15.73
2023-02-09T07:13:56.196Z,13.37
2023-02-09T07:16:23.677Z,16.63
2023-02-09T07:18:51.233Z,13.73
2023-02-09T07:21:20.075Z,14.33
2023-02-09T07:23:49.355Z,13.90
2023-02-09T07:26:18.556Z,16.57
2023-02-09T07:28:45.951Z,14.20
2023-02-09T07:31:16.044Z,15.63
2023-02-09T07:33:43.534Z,15.67
2023-02-09T07:36:13.294Z,14.40
2023-02-09T07:38:41.082Z,15.60
2023-02-09T07:41:17.429Z,14.77
2023-02-09T07:43:45.519Z,16.03
2023-02-09T07:46:16.343Z,15.37
2023-02-09T07:48:43.750Z,14.13
2023-02-09T07:51:20.971Z,14.87
2023-02-09T07:53:48.211Z,15.73
2023-02-09T07:56:15.249Z,17.13
2023-02-09T07:58:42.389Z,14.60
2023-02-09T08:01:12.612Z,16.40
2023-02-09T08:03:43.885Z,16.30
2023-02-09T08:06:30.381Z,15.03
2023-02-09T08:09:05.289Z,17.93
2023-02-09T08:11:44.035Z,14.00
2023-02-09T08:14:28.476Z,15.73
2023-02-09T08:17:20.512Z,15.67
2023-02-09T08:19:57.333Z,14.83
2023-02-09T08:22:28.367Z,17.33
2023-02-09T08:24:55.979Z,15.13
2023-02-09T08:27:23.549Z,17.93
2023-02-09T08:29:51.051Z,16.87
2023-02-09T08:32:18.467Z,17.50
2023-02-09T08:34:45.937Z,15.33
2023-02-09T08:37:13.212Z,16.90
2023-02-09T08:39:40.395Z,18.57
2023-02-09T08:42:07.495Z,16.03
2023-02-09T08:44:37.453Z,17.37
2023-02-09T08:47:04.739Z,14.83
2023-02-09T08:49:32.048Z,13.23
2023-02-09T08:51:59.565Z,15.40
2023-02-09T08:54:27.089Z,17.17
2023-02-09T08:56:54.249Z,15.03
2023-02-09T08:59:22.020Z,14.90
2023-02-09T09:01:49.474Z,16.53
2023-02-09T09:04:16.967Z,15.60
2023-02-09T09:06:44.459Z,16.50
2023-02-09T09:09:11.759Z,17.33
2023-02-09T09:11:39.139Z,16.30
2023-02-09T09:14:06.526Z,14.67
2023-02-09T09:16:34.282Z,14.37
2023-02-09T09:19:01.714Z,15.13
2023-02-09T09:21:28.845Z,15.20
2023-02-09T09:23:56.148Z,16.40
2023-02-09T09:26:23.435Z,15.23
2023-02-09T09:28:51.513Z,16.83
2023-02-09T09:31:19.506Z,13.80
2023-02-09T09:33:47.822Z,12.60
2023-02-09T09:36:15.200Z,13.20
2023-02-09T09:38:43.247Z,14.30
2023-02-09T09:41:36.492Z,13.27
2023-02-09T09:44:12.302Z,16.03
2023-02-09T09:46:47.919Z,18.20
2023-02-09T09:49:29.148Z,15.13
2023-02-09T09:52:25.336Z,17.03
2023-02-09T09:54:52.716Z,14.10
2023-02-09T09:57:28.654Z,14.17
2023-02-09T09:59:57.109Z,14.70
2023-02-09T10:02:32.038Z,15.87
2023-02-09T10:05:17.243Z,14.27
2023-02-09T10:07:54.759Z,15.80
2023-02-09T10:10:56.378Z,14.90
2023-02-09T10:13:53.553Z,18.20
2023-02-09T10:16:38.228Z,13.53
2023-02-09T10:19:17.110Z,12.40
2023-02-09T10:21:44.532Z,13.47
2023-02-09T10:24:26.592Z,18.00
2023-02-09T10:27:13.197Z,14.83
2023-02-09T10:29:41.131Z,14.57
2023-02-09T10:32:15.462Z,16.37
2023-02-09T10:34:56.876Z,15.23
2023-02-09T10:37:39.650Z,15.47
2023-02-09T10:40:18.960Z,17.67
2023-02-09T10:43:02.630Z,17.83
2023-02-09T10:45:58.525Z,17.23
2023-02-09T10:48:28.151Z,15.37
2023-02-09T10:51:05.432Z,16.20
2023-02-09T10:53:56.473Z,16.83
2023-02-09T10:56:49.348Z,18.47
2023-02-09T10:59:25.052Z,15.40
2023-02-09T11:02:04.559Z,17.00
2023-02-09T11:04:40.861Z,15.43
2023-02-09T11:07:17.202Z,15.10
2023-02-09T11:09:51.283Z,14.53
2023-02-09T11:12:22.675Z,13.63
2023-02-09T11:14:49.798Z,13.77
2023-02-09T11:17:27.214Z,15.77
2023-02-09T11:20:18.006Z,16.67
2023-02-09T11:23:21.134Z,16.67
2023-02-09T11:26:26.589Z,15.93
2023-02-09T11:29:48.963Z,14.73
2023-02-09T11:32:35.889Z,17.13
2023-02-09T11:35:09.215Z,17.47
2023-02-09T11:38:13.623Z,13.83
2023-02-09T11:40:51.937Z,16.13
2023-02-09T11:43:41.209Z,14.10
2023-02-09T11:46:22.142Z,15.87
2023-02-09T11:49:10.628Z,16.40
2023-02-09T11:51:41.491Z,17.73
2023-02-09T11:54:24.474Z,16.03
2023-02-09T11:57:00.584Z,17.03
2023-02-09T11:59:40.530Z,15.67
2023-02-09T12:02:37.150Z,18.73
2023-02-09T12:05:05.709Z,15.87
2023-02-09T12:08:17.500Z,16.30
2023-02-09T12:10:56.688Z,15.43
2023-02-09T12:14:01.299Z,15.37
2023-02-09T12:16:44.794Z,15.73
2023-02-09T12:19:37.116Z,17.83
2023-02-09T12:22:35.232Z,15.83
2023-02-09T12:25:23.883Z,17.47
2023-02-09T12:28:17.161Z,14.93
2023-02-09T12:30:44.752Z,15.77
2023-02-09T12:33:24.062Z,16.17
2023-02-09T12:36:32.449Z,17.43
2023-02-09T12:39:26.622Z,16.87
2023-02-09T12:41:53.623Z,16.23
2023-02-09T12:44:20.508Z,16.53
2023-02-09T12:46:55.801Z,18.47
2023-02-09T12:49:28.857Z,17.17
2023-02-09T12:52:02.280Z,16.30
2023-02-09T12:54:51.261Z,18.13
2023-02-09T12:57:19.469Z,18.13
2023-02-09T13:00:03.679Z,18.87
2023-02-09T13:02:50.605Z,17.07
2023-02-09T13:05:40.370Z,18.33
2023-02-09T13:08:21.924Z,17.17
2023-02-09T13:11:32.240Z,17.53
2023-02-09T13:14:07.547Z,17.27
2023-02-09T13:17:01.610Z,17.10
2023-02-09T13:19:48.219Z,19.50
2023-02-09T13:22:24.101Z,18.87
2023-02-09T13:25:36.449Z,19.67
2023-02-09T13:28:29.856Z,19.27
2023-02-09T13:30:57.233Z,20.63
2023-02-09T13:33:51.051Z,20.23
2023-02-09T13:36:38.485Z,20.47
2023-02-09T13:39:23.620Z,19.20
2023-02-09T13:41:53.726Z,20.97
2023-02-09T13:44:26.433Z,20.10
2023-02-09T13:47:00.334Z,22.60
2023-02-09T13:49:29.931Z,22.43
2023-02-09T13:52:22.134Z,23.03
2023-02-09T13:54:50.129Z,21.27
2023-02-09T13:57:41.811Z,22.00
2023-02-09T14:00:22.392Z,22.10
2023-02-09T14:03:12.268Z,23.23
2023-02-09T14:06:22.975Z,19.73
2023-02-09T14:08:52.169Z,22.60
2023-02-09T14:11:41.780Z,21.37
2023-02-09T14:14:16.018Z,22.60
2023-02-09T14:16:52.988Z,22.70
2023-02-09T14:19:32.321Z,24.33
2023-02-09T14:21:59.505Z,20.77
2023-02-09T14:24:28.762Z,21.20
2023-02-09T14:27:21.822Z,23.03
2023-02-09T14:29:50.916Z,21.17
2023-02-09T14:32:32.303Z,20.90
2023-02-09T14:35:17.589Z,21.43
2023-02-09T14:37:45.521Z,20.80
2023-02-09T14:40:28.936Z,23.43
2023-02-09T14:43:19.897Z,23.70
2023-02-09T14:45:57.712Z,21.87
2023-02-09T14:48:28.198Z,20.80
2023-02-09T14:51:02.567Z,25.13
2023-02-09T14:53:33.633Z,26.73
2023-02-09T14:56:00.866Z,22.23
2023-02-09T14:58:31.510Z,24.50
2023-02-09T15:01:01.589Z,23.00
2023-02-09T15:03:28.991Z,28.77
2023-02-09T15:06:00.641Z,26.40
2023-02-09T15:08:31.118Z,21.53
2023-02-09T15:11:02.793Z,21.53
2023-02-09T15:13:31.311Z,25.17
2023-02-09T15:15:58.627Z,24.00
2023-02-09T15:18:27.438Z,22.43
2023-02-09T15:20:54.499Z,26.73
2023-02-09T15:23:21.577Z,22.67
2023-02-09T15:25:49.006Z,24.47
2023-02-09T15:28:28.450Z,22.77
2023-02-09T15:30:57.869Z,29.63
2023-02-09T15:33:29.392Z,24.90
2023-02-09T15:35:59.225Z,26.67
2023-02-09T15:38:27.969Z,23.63
2023-02-09T15:41:13.966Z,23.17
2023-02-09T15:43:59.681Z,26.47
2023-02-09T15:46:45.506Z,29.20
2023-02-09T15:49:12.714Z,30.27
2023-02-09T15:51:41.174Z,25.53
2023-02-09T15:54:18.840Z,31.13
2023-02-09T15:56:46.977Z,24.53
2023-02-09T15:59:23.508Z,26.77
2023-02-09T16:01:51.272Z,32.20
2023-02-09T16:04:18.862Z,24.50
2023-02-09T16:06:53.239Z,28.87
2023-02-09T16:09:27.833Z,26.57
2023-02-09T16:11:55.685Z,24.33
2023-02-09T16:14:26.625Z,29.73
2023-02-09T16:16:54.061Z,28.93
2023-02-09T16:19:21.569Z,27.70
2023-02-09T16:21:54.009Z,25.23
2023-02-09T16:24:38.534Z,31.47
2023-02-09T16:27:22.570Z,25.97
2023-02-09T16:29:49.779Z,29.53
2023-02-09T16:32:19.971Z,27.03
2023-02-09T16:34:47.247Z,27.93
2023-02-09T16:37:31.524Z,30.47
2023-02-09T16:39:59.165Z,28.70
2023-02-09T16:42:29.514Z,26.07
2023-02-09T16:44:57.244Z,25.87
2023-02-09T16:47:27.008Z,28.77
2023-02-09T16:50:02.973Z,27.37
2023-02-09T16:52:30.427Z,29.70
2023-02-09T16:55:04.957Z,28.90
2023-02-09T16:57:33.184Z,28.73
2023-02-09T17:00:00.283Z,32.60
2023-02-09T17:02:41.611Z,31.60
2023-02-09T17:05:31.092Z,30.97
2023-02-09T17:08:15.525Z,28.13
2023-02-09T17:10:42.778Z,32.30
2023-02-09T17:13:11.644Z,32.67
2023-02-09T17:15:46.588Z,28.67
2023-02-09T17:18:21.812Z,31.13
2023-02-09T17:20:57.851Z,30.27
2023-02-09T17:23:28.153Z,32.27
2023-02-09T17:25:56.508Z,30.27
2023-02-09T17:28:26.185Z,31.50
2023-02-09T17:30:59.968Z,30.97
2023-02-09T17:33:34.452Z,30.40
2023-02-09T17:38:52.323Z,54.63
2023-02-09T17:41:48.380Z,37.20
2023-02-09T17:44:26.412Z,31.80
2023-02-09T17:46:59.071Z,30.63
2023-02-09T17:49:26.389Z,31.97
2023-02-09T17:51:53.484Z,32.10
2023-02-09T17:54:21.874Z,33.17
2023-02-09T17:56:49.063Z,31.93
2023-02-09T17:59:19.874Z,34.70
2023-02-09T18:01:50.633Z,30.27
2023-02-09T18:04:22.487Z,35.50
2023-02-09T18:06:49.852Z,32.23
2023-02-09T18:09:17.076Z,31.60
2023-02-09T18:12:02.497Z,34.63
2023-02-09T18:14:33.539Z,30.77
2023-02-09T18:17:01.781Z,38.20
2023-02-09T18:19:29.105Z,34.10
2023-02-09T18:21:59.529Z,35.33
2023-02-09T18:24:31.345Z,39.27
2023-02-09T18:26:58.591Z,35.60
2023-02-09T18:29:29.348Z,35.63
2023-02-09T18:32:02.080Z,35.90
2023-02-09T18:34:29.569Z,32.73
2023-02-09T18:36:57.036Z,34.83
2023-02-09T18:39:24.813Z,37.03
2023-02-09T18:41:55.479Z,33.77
2023-02-09T18:44:28.906Z,31.83
2023-02-09T18:46:58.054Z,34.33
2023-02-09T18:49:25.207Z,32.57
2023-02-09T18:51:52.736Z,31.03
2023-02-09T18:54:19.999Z,33.43
2023-02-09T18:56:47.425Z,33.63
2023-02-09T18:59:14.633Z,33.60
2023-02-09T19:01:42.502Z,30.77
2023-02-09T19:04:09.624Z,35.43
2023-02-09T19:06:36.987Z,32.87
2023-02-09T19:09:04.453Z,34.73
2023-02-09T19:11:31.796Z,35.23
2023-02-09T19:14:17.659Z,33.07
2023-02-09T19:16:44.750Z,32.47
2023-02-09T19:19:13.539Z,37.37
2023-02-09T19:21:40.659Z,33.37
2023-02-09T19:24:07.936Z,33.50
2023-02-09T19:26:35.527Z,37.30
2023-02-09T19:29:02.882Z,34.20
2023-02-09T19:31:30.458Z,36.97
2023-02-09T19:33:58.062Z,36.27
2023-02-09T19:36:27.985Z,32.87
2023-02-09T19:38:56.386Z,33.70
2023-02-09T19:41:25.749Z,33.07
2023-02-09T19:43:57.934Z,32.93
2023-02-09T19:46:25.616Z,35.87
2023-02-09T19:48:57.542Z,33.83
2023-02-09T19:51:25.260Z,38.40
2023-02-09T19:53:52.295Z,35.20
2023-02-09T19:56:23.609Z,34.43
2023-02-09T19:58:51.334Z,33.80
2023-02-09T20:01:19.166Z,34.47
2023-02-09T20:03:48.115Z,37.90
2023-02-09T20:06:16.782Z,34.53
2023-02-09T20:08:44.445Z,36.70
2023-02-09T20:11:17.207Z,38.03
2023-02-09T20:13:44.782Z,34.90
2023-02-09T20:16:19.423Z,36.67
2023-02-09T20:18:48.996Z,35.03
2023-02-09T20:21:19.439Z,41.63
2023-02-09T20:23:55.432Z,39.23
2023-02-09T20:26:29.807Z,35.17
2023-02-09T20:28:58.078Z,40.37
2023-02-09T20:31:34.556Z,41.00
2023-02-09T20:34:07.648Z,40.50
2023-02-09T20:36:38.417Z,33.93
2023-02-09T20:39:10.092Z,40.27
2023-02-09T20:41:37.523Z,37.87
2023-02-09T20:44:23.607Z,44.10
2023-02-09T20:46:56.728Z,43.37
2023-02-09T20:49:31.381Z,37.83
2023-02-09T20:51:59.095Z,39.20
2023-02-09T20:54:26.166Z,41.90
2023-02-09T20:56:53.331Z,39.20
2023-02-09T20:59:20.746Z,39.67
2023-02-09T21:01:48.063Z,37.83
2023-02-09T21:04:15.671Z,41.53
2023-02-09T21:06:43.108Z,40.63
2023-02-09T21:09:14.890Z,44.43
2023-02-09T21:11:42.635Z,39.70
2023-02-09T21:14:21.646Z,42.10
2023-02-09T21:16:56.853Z,40.87
2023-02-09T21:19:24.790Z,45.57
2023-02-09T21:21:53.043Z,46.13
2023-02-09T21:24:20.507Z,40.57
2023-02-09T21:26:47.790Z,44.03
2023-02-09T21:29:15.395Z,44.83
2023-02-09T21:31:42.618Z,43.27
2023-02-09T21:34:14.888Z,42.33
2023-02-09T21:36:42.277Z,48.53
2023-02-09T21:39:09.769Z,44.93
2023-02-09T21:41:55.801Z,43.83
2023-02-09T21:44:23.117Z,46.27
2023-02-09T21:46:50.477Z,47.37
2023-02-09T21:49:17.795Z,43.80
2023-02-09T21:51:45.529Z,47.90
2023-02-09T21:54:15.106Z,49.80
2023-02-09T21:56:43.172Z,43.73
2023-02-09T21:59:11.066Z,50.40
2023-02-09T22:01:39.721Z,43.20
2023-02-09T22:04:06.883Z,46.10
2023-02-09T22:06:33.941Z,44.33
2023-02-09T22:09:02.879Z,42.00
2023-02-09T22:11:30.516Z,41.67
2023-02-09T22:13:57.654Z,42.43
2023-02-09T22:16:25.516Z,43.17
2023-02-09T22:18:53.292Z,41.23
2023-02-09T22:21:20.328Z,47.60
2023-02-09T22:23:47.824Z,42.60
2023-02-09T22:26:15.155Z,44.33
2023-02-09T22:28:42.846Z,49.40
2023-02-09T22:31:18.729Z,46.60
2023-02-09T22:33:46.082Z,46.87
2023-02-09T22:36:16.721Z,45.77
2023-02-09T22:38:44.808Z,46.87
2023-02-09T22:41:21.745Z,46.60
2023-02-09T22:44:00.237Z,48.93
2023-02-09T22:46:36.886Z,44.07
2023-02-09T22:49:08.730Z,46.90
2023-02-09T22:51:37.516Z,48.13
2023-02-09T22:54:05.596Z,43.40
2023-02-09T22:56:33.729Z,43.17
2023-02-09T22:59:02.039Z,42.87
2023-02-09T23:01:30.355Z,47.03
2023-02-09T23:03:58.420Z,47.10
2023-02-09T23:06:28.036Z,44.60
2023-02-09T23:09:00.943Z,45.30
2023-02-09T23:11:30.696Z,44.17
2023-02-09T23:14:14.200Z,44.57
2023-02-09T23:16:43.924Z,44.70
2023-02-09T23:19:18.596Z,43.20
2023-02-09T23:21:49.831Z,43.30
2023-02-09T23:24:43.709Z,44.00
2023-02-09T23:27:11.314Z,43.13
2023-02-09T23:29:38.311Z,44.80
2023-02-09T23:32:05.589Z,43.27
2023-02-09T23:34:33.676Z,43.17
2023-02-09T23:37:08.658Z,41.87
2023-02-09T23:39:45.363Z,44.07
2023-02-09T23:42:12.662Z,43.33
2023-02-09T23:44:39.853Z,45.57
2023-02-09T23:47:07.280Z,45.03
2023-02-09T23:49:34.543Z,40.13
2023-02-09T23:52:01.625Z,51.20
2023-02-09T23:54:28.749Z,49.77
2023-02-09T23:56:59.158Z,46.80
2023-02-09T23:59:26.217Z,44.83
